createdAt,value
2023-04-12T00:02:14.504Z,1.70
2023-04-12T00:07:18.538Z,1.48
2023-04-12T00:12:21.117Z,1.50
2023-04-12T00:17:25.093Z,1.83
2023-04-12T00:22:28.491Z,2.00
2023-04-12T00:27:31.203Z,1.45
2023-04-12T00:32:35.163Z,1.85
2023-04-12T00:37:38.615Z,1.88
2023-04-12T00:42:41.929Z,1.50
2023-04-12T00:47:46.037Z,1.50
2023-04-12T00:52:48.691Z,1.40
2023-04-12T00:57:51.658Z,1.60
2023-04-12T01:02:57.034Z,1.60
2023-04-12T01:08:06.367Z,1.50
2023-04-12T01:13:13.100Z,1.70
2023-04-12T01:18:19.607Z,1.80
2023-04-12T01:23:41.721Z,1.70
2023-04-12T01:28:46.412Z,1.67
2023-04-12T01:33:50.572Z,1.77
2023-04-12T01:38:53.709Z,1.87
2023-04-12T01:43:57.836Z,1.87
2023-04-12T01:49:00.877Z,1.83
2023-04-12T01:54:11.211Z,2.17
2023-04-12T01:59:15.723Z,2.20
2023-04-12T02:04:19.517Z,2.20
2023-04-12T02:09:23.473Z,2.20
2023-04-12T02:14:27.742Z,2.83
2023-04-12T02:19:30.318Z,2.20
2023-04-12T02:24:33.181Z,2.23
2023-04-12T02:29:37.206Z,2.70
2023-04-12T02:34:39.959Z,2.30
2023-04-12T02:39:52.441Z,2.50
2023-04-12T02:44:57.746Z,2.23
2023-04-12T02:50:00.509Z,2.27
2023-04-12T02:55:04.333Z,3.20
2023-04-12T03:00:12.243Z,2.47
2023-04-12T03:05:24.270Z,1.93
2023-04-12T03:10:27.988Z,1.90
2023-04-12T03:15:38.458Z,1.77
2023-04-12T03:20:44.730Z,2.13
2023-04-12T03:25:49.490Z,2.07
2023-04-12T03:31:08.192Z,1.77
2023-04-12T03:36:15.706Z,1.90
2023-04-12T03:41:20.072Z,2.10
2023-04-12T03:46:24.370Z,2.13
2023-04-12T03:51:32.436Z,2.33
2023-04-12T03:56:38.588Z,2.00
2023-04-12T04:01:47.930Z,1.60
2023-04-12T04:06:51.055Z,2.00
2023-04-12T04:11:54.301Z,1.80
2023-04-12T04:16:59.913Z,2.00
2023-04-12T04:22:03.026Z,1.73
2023-04-12T04:27:06.499Z,1.60
2023-04-12T04:32:10.476Z,1.60
2023-04-12T04:37:13.426Z,1.80
2023-04-12T04:42:19.024Z,1.90
2023-04-12T04:47:36.935Z,1.60
2023-04-12T04:52:41.131Z,1.93
2023-04-12T04:57:48.239Z,1.90
2023-04-12T05:02:53.532Z,1.60
2023-04-12T05:08:03.033Z,1.90
2023-04-12T05:13:07.876Z,1.90
2023-04-12T05:18:11.966Z,1.30
2023-04-12T05:23:14.862Z,1.50
2023-04-12T05:28:17.660Z,1.60
2023-04-12T05:33:21.867Z,1.33
2023-04-12T05:38:24.982Z,1.73
2023-04-12T05:43:33.230Z,1.53
2023-04-12T05:48:37.206Z,1.30
2023-04-12T05:53:39.760Z,1.63
2023-04-12T05:58:43.289Z,1.47
2023-04-12T06:03:47.358Z,1.20
2023-04-12T06:08:50.306Z,1.20
2023-04-12T06:13:52.934Z,1.38
2023-04-12T06:18:56.973Z,1.30
2023-04-12T06:23:59.780Z,1.40
2023-04-12T06:29:02.546Z,1.63
2023-04-12T06:34:06.778Z,1.23
2023-04-12T06:39:12.064Z,1.53
2023-04-12T06:44:14.859Z,1.37
2023-04-12T06:49:18.804Z,1.42
2023-04-12T06:54:21.382Z,1.52
2023-04-12T06:59:24.125Z,1.30
2023-04-12T07:04:28.051Z,1.35
2023-04-12T07:09:32.210Z,1.23
2023-04-12T07:14:34.776Z,1.50
2023-04-12T07:19:39.439Z,1.10
2023-04-12T07:24:42.240Z,1.00
2023-04-12T07:29:44.817Z,1.38
2023-04-12T07:34:48.726Z,1.30
2023-04-12T07:39:51.408Z,1.17
2023-04-12T07:44:54.054Z,1.15
2023-04-12T07:49:58.858Z,1.20
2023-04-12T07:55:01.670Z,1.10
2023-04-12T08:00:05.796Z,1.33
2023-04-12T08:05:17.077Z,1.02
2023-04-12T08:10:19.792Z,1.30
2023-04-12T08:15:22.600Z,1.50
2023-04-12T08:20:26.570Z,1.15
2023-04-12T08:25:29.205Z,1.05
2023-04-12T08:30:31.879Z,0.85
2023-04-12T08:35:35.862Z,1.15
2023-04-12T08:40:38.443Z,0.90
2023-04-12T08:45:41.194Z,0.90
2023-04-12T08:50:45.724Z,1.00
2023-04-12T08:55:48.372Z,1.23
2023-04-12T09:00:51.057Z,1.30
2023-04-12T09:05:54.954Z,0.80
2023-04-12T09:10:58.057Z,1.08
2023-04-12T09:16:00.635Z,1.27
2023-04-12T09:21:11.877Z,1.10
2023-04-12T09:26:27.987Z,1.08
2023-04-12T09:31:31.071Z,0.88
2023-04-12T09:36:40.403Z,1.20
2023-04-12T09:41:43.092Z,1.23
2023-04-12T09:46:51.256Z,0.85
2023-04-12T09:51:56.457Z,0.90
2023-04-12T09:57:01.022Z,0.98
2023-04-12T10:02:05.057Z,1.10
2023-04-12T10:07:09.387Z,1.10
2023-04-12T10:12:12.251Z,1.00
2023-04-12T10:17:15.056Z,1.15
2023-04-12T10:22:19.463Z,1.00
2023-04-12T10:27:25.910Z,0.95
2023-04-12T10:32:28.602Z,1.20
2023-04-12T10:37:53.428Z,0.82
2023-04-12T10:43:14.722Z,0.88
2023-04-12T10:48:31.753Z,0.80
2023-04-12T10:53:34.368Z,1.00
2023-04-12T10:58:58.814Z,1.00
2023-04-12T11:04:26.428Z,0.70
2023-04-12T11:09:45.511Z,0.80
2023-04-12T11:15:01.294Z,0.90
2023-04-12T11:20:13.597Z,0.85
2023-04-12T11:25:18.993Z,1.20
2023-04-12T11:30:23.421Z,0.85
2023-04-12T11:35:30.317Z,0.90
2023-04-12T11:40:34.435Z,0.70
2023-04-12T11:45:37.117Z,1.08
2023-04-12T11:50:40.274Z,0.75
2023-04-12T11:55:48.530Z,0.90
2023-04-12T12:00:51.534Z,0.90
2023-04-12T12:05:54.628Z,0.88
2023-04-12T12:11:06.948Z,0.75
2023-04-12T12:16:13.080Z,0.80
2023-04-12T12:21:16.153Z,0.80
2023-04-12T12:26:23.863Z,0.90
2023-04-12T12:31:28.351Z,1.15
2023-04-12T12:36:32.569Z,0.77
2023-04-12T12:41:37.289Z,0.98
2023-04-12T12:46:53.512Z,1.20
2023-04-12T12:51:59.797Z,0.90
2023-04-12T12:57:04.395Z,0.68
2023-04-12T13:02:07.363Z,1.15
2023-04-12T13:07:10.134Z,0.90
2023-04-12T13:12:16.289Z,0.90
2023-04-12T13:17:18.842Z,0.82
2023-04-12T13:22:21.424Z,0.98
2023-04-12T13:27:25.368Z,0.77
2023-04-12T13:32:28.305Z,0.70
2023-04-12T13:37:31.105Z,0.70
2023-04-12T13:42:35.083Z,0.75
2023-04-12T13:47:37.945Z,0.80
2023-04-12T13:52:40.668Z,0.80
2023-04-12T13:57:44.726Z,0.93
2023-04-12T14:02:47.459Z,1.33
2023-04-12T14:07:52.423Z,1.05
2023-04-12T14:12:56.335Z,0.98
2023-04-12T14:17:59.293Z,1.38
2023-04-12T14:23:02.506Z,1.23
2023-04-12T14:28:06.797Z,2.40
2023-04-12T14:33:09.672Z,1.80
2023-04-12T14:38:12.684Z,1.20
2023-04-12T14:43:17.142Z,1.55
2023-04-12T14:48:19.943Z,1.35
2023-04-12T14:53:23.046Z,1.42
2023-04-12T14:58:29.449Z,1.00
2023-04-12T15:03:34.048Z,1.50
2023-04-12T15:08:41.608Z,1.20
2023-04-12T15:13:45.524Z,1.05
2023-04-12T15:18:48.541Z,1.30
2023-04-12T15:23:51.187Z,2.13
2023-04-12T15:28:55.399Z,3.42
2023-04-12T15:33:58.518Z,3.95
2023-04-12T15:39:02.182Z,2.15
2023-04-12T15:44:06.163Z,1.35
2023-04-12T15:49:09.098Z,1.08
2023-04-12T15:54:11.678Z,1.40
2023-04-12T15:59:18.717Z,2.63
2023-04-12T16:04:21.624Z,1.30
2023-04-12T16:09:25.596Z,1.30
2023-04-12T16:14:29.537Z,1.35
2023-04-12T16:19:32.275Z,1.45
2023-04-12T16:24:35.006Z,1.23
2023-04-12T16:29:40.206Z,1.60
2023-04-12T16:34:44.562Z,1.10
2023-04-12T16:39:47.572Z,1.60
2023-04-12T16:44:51.882Z,1.20
2023-04-12T16:49:54.653Z,1.30
2023-04-12T16:54:58.134Z,1.40
2023-04-12T17:00:04.292Z,1.20
2023-04-12T17:05:07.323Z,1.30
2023-04-12T17:10:10.089Z,1.42
2023-04-12T17:15:15.325Z,1.60
2023-04-12T17:20:19.604Z,1.20
2023-04-12T17:25:24.918Z,1.48
2023-04-12T17:30:31.727Z,1.30
2023-04-12T17:35:37.496Z,1.17
2023-04-12T17:40:40.096Z,1.20
2023-04-12T17:45:44.032Z,1.40
2023-04-12T17:50:47.056Z,1.63
2023-04-12T17:55:50.686Z,1.80
2023-04-12T18:00:54.861Z,1.60
2023-04-12T18:05:59.039Z,1.33
2023-04-12T18:11:02.256Z,1.40
2023-04-12T18:16:07.077Z,1.50
2023-04-12T18:21:10.015Z,1.20
2023-04-12T18:26:12.579Z,1.63
2023-04-12T18:31:16.788Z,2.80
2023-04-12T18:36:19.418Z,1.65
2023-04-12T18:41:22.221Z,1.92
2023-04-12T18:46:29.085Z,1.90
2023-04-12T18:51:32.734Z,1.73
2023-04-12T18:56:35.785Z,1.58
2023-04-12T19:01:39.943Z,1.50
2023-04-12T19:06:44.212Z,1.55
2023-04-12T19:11:47.140Z,1.25
2023-04-12T19:16:51.778Z,1.00
2023-04-12T19:21:54.751Z,1.27
2023-04-12T19:26:57.499Z,1.25
2023-04-12T19:32:02.331Z,1.40
2023-04-12T19:37:05.818Z,1.45
2023-04-12T19:42:08.617Z,1.30
2023-04-12T19:47:12.654Z,1.30
2023-04-12T19:52:16.300Z,1.00
2023-04-12T19:57:19.557Z,1.13
2023-04-12T20:02:24.556Z,1.10
2023-04-12T20:07:27.324Z,1.15
2023-04-12T20:12:30.004Z,1.30
2023-04-12T20:17:34.591Z,1.40
2023-04-12T20:22:37.390Z,1.42
2023-04-12T20:27:41.219Z,1.30
2023-04-12T20:32:45.764Z,1.35
2023-04-12T20:37:50.258Z,1.63
2023-04-12T20:42:54.190Z,1.73
2023-04-12T20:47:59.280Z,1.50
2023-04-12T20:53:02.089Z,1.80
2023-04-12T20:58:06.989Z,1.70
2023-04-12T21:03:12.249Z,1.98
2023-04-12T21:08:15.383Z,2.00
2023-04-12T21:13:21.728Z,1.77
2023-04-12T21:18:25.735Z,2.03
2023-04-12T21:23:29.125Z,1.80
2023-04-12T21:28:31.892Z,2.00
2023-04-12T21:33:36.807Z,1.88
2023-04-12T21:38:39.774Z,2.25
2023-04-12T21:43:42.410Z,2.25
2023-04-12T21:48:46.318Z,2.08
2023-04-12T21:53:48.905Z,2.40
2023-04-12T21:58:51.504Z,2.20
2023-04-12T22:03:55.746Z,2.55
2023-04-12T22:09:02.004Z,2.95
2023-04-12T22:14:05.065Z,2.45
2023-04-12T22:19:09.276Z,2.72
2023-04-12T22:24:12.254Z,2.40
2023-04-12T22:29:17.610Z,1.85
2023-04-12T22:34:21.623Z,1.20
2023-04-12T22:39:24.295Z,1.30
2023-04-12T22:44:29.336Z,1.00
2023-04-12T22:49:33.288Z,1.20
2023-04-12T22:54:35.903Z,1.00
2023-04-12T22:59:38.493Z,0.60
2023-04-12T23:04:43.842Z,0.93
2023-04-12T23:09:46.640Z,0.70
2023-04-12T23:14:49.182Z,0.80
2023-04-12T23:19:53.558Z,0.70
2023-04-12T23:24:56.304Z,0.77
2023-04-12T23:29:58.842Z,0.55
2023-04-12T23:35:02.774Z,0.60
2023-04-12T23:40:05.820Z,0.60
2023-04-12T23:45:09.424Z,0.50
2023-04-12T23:50:13.349Z,0.50
2023-04-12T23:55:16.451Z,0.60
